createdAt,value
2018-01-24T00:00:01.560Z,6.31
2018-01-24T00:01:00.554Z,6.28
2018-01-24T00:02:00.995Z,6.28
2018-01-24T00:03:00.326Z,6.31
2018-01-24T00:04:00.960Z,6.33
2018-01-24T00:05:00.892Z,6.3
2018-01-24T00:06:00.313Z,6.27
2018-01-24T00:07:00.160Z,6.3
2018-01-24T00:08:00.395Z,6.32
2018-01-24T00:09:00.906Z,6.32
2018-01-24T00:10:02.583Z,6.31
2018-01-24T00:11:01.489Z,6.3
2018-01-24T00:12:00.968Z,6.29
2018-01-24T00:13:01.189Z,6.28
2018-01-24T00:14:01.478Z,6.3
2018-01-24T00:15:02.589Z,6.27
2018-01-24T00:16:03.520Z,6.26
2018-01-24T00:17:00.299Z,6.32
2018-01-24T00:18:01.022Z,6.31
2018-01-24T00:19:02.408Z,6.26
2018-01-24T00:20:02.375Z,6.34
2018-01-24T00:21:01.034Z,6.34
2018-01-24T00:22:01.455Z,6.3
2018-01-24T00:23:02.363Z,6.32
2018-01-24T00:24:00.550Z,6.33
2018-01-24T00:25:00.340Z,6.32
2018-01-24T00:26:00.927Z,6.32
2018-01-24T00:27:02.061Z,6.32
2018-01-24T00:28:00.256Z,6.35
2018-01-24T00:29:00.242Z,6.34
2018-01-24T00:30:02.370Z,6.34
2018-01-24T00:31:01.451Z,6.31
2018-01-24T00:32:00.767Z,6.29
2018-01-24T00:33:01.763Z,6.29
2018-01-24T00:34:00.494Z,6.32
2018-01-24T00:35:00.277Z,6.32
2018-01-24T00:36:01.022Z,6.33
2018-01-24T00:37:02.460Z,6.33
2018-01-24T00:38:02.482Z,6.31
2018-01-24T00:39:00.809Z,6.31
2018-01-24T00:40:00.387Z,6.31
2018-01-24T00:41:01.056Z,6.29
2018-01-24T00:42:00.326Z,6.32
2018-01-24T00:43:01.147Z,6.32
2018-01-24T00:44:00.259Z,6.32
2018-01-24T00:45:00.363Z,6.33
2018-01-24T00:46:00.769Z,6.31
2018-01-24T00:47:01.241Z,6.33
2018-01-24T00:48:01.801Z,6.32
2018-01-24T00:49:00.989Z,6.29
2018-01-24T00:50:01.195Z,6.34
2018-01-24T00:51:00.428Z,6.34
2018-01-24T00:52:01.037Z,6.36
2018-01-24T00:53:00.505Z,6.35
2018-01-24T00:54:01.192Z,6.37
2018-01-24T00:55:01.474Z,6.38
2018-01-24T00:56:02.757Z,6.38
2018-01-24T00:57:00.803Z,6.34
2018-01-24T00:58:01.154Z,6.38
2018-01-24T00:59:00.320Z,6.36
2018-01-24T01:00:02.051Z,6.38
2018-01-24T01:01:00.944Z,6.35
2018-01-24T01:02:00.325Z,6.35
2018-01-24T01:03:00.284Z,6.37
2018-01-24T01:04:00.979Z,6.37
2018-01-24T01:05:01.343Z,6.34
2018-01-24T01:06:00.890Z,6.37
2018-01-24T01:07:01.092Z,6.39
2018-01-24T01:08:00.964Z,6.4
2018-01-24T01:09:01.567Z,6.36
2018-01-24T01:10:01.050Z,6.38
2018-01-24T01:11:00.327Z,6.36
2018-01-24T01:12:00.476Z,6.37
2018-01-24T01:13:00.916Z,6.37
2018-01-24T01:14:00.446Z,6.37
2018-01-24T01:15:02.989Z,6.41
2018-01-24T01:16:00.305Z,6.36
2018-01-24T01:17:01.758Z,6.39
2018-01-24T01:18:00.421Z,6.38
2018-01-24T01:19:01.901Z,6.41
2018-01-24T01:20:00.961Z,6.4
2018-01-24T01:21:00.879Z,6.39
2018-01-24T01:22:01.458Z,6.4
2018-01-24T01:23:01.079Z,6.41
2018-01-24T01:24:01.031Z,6.4
2018-01-24T01:25:02.060Z,6.41
2018-01-24T01:26:01.172Z,6.39
2018-01-24T01:27:00.355Z,6.41
2018-01-24T01:28:01.076Z,6.38
2018-01-24T01:29:00.970Z,6.4
2018-01-24T01:30:00.407Z,6.4
2018-01-24T01:31:00.268Z,6.39
2018-01-24T01:32:01.660Z,6.39
2018-01-24T01:33:00.308Z,6.42
2018-01-24T01:34:01.194Z,6.43
2018-01-24T01:35:01.261Z,6.41
2018-01-24T01:36:00.239Z,6.39
2018-01-24T01:37:01.761Z,6.43
2018-01-24T01:38:03.129Z,6.43
2018-01-24T01:39:00.613Z,6.45
2018-01-24T01:40:00.385Z,6.44
2018-01-24T01:41:00.394Z,6.45
2018-01-24T01:42:01.234Z,6.45
2018-01-24T01:43:01.926Z,6.46
2018-01-24T01:44:03.142Z,6.45
2018-01-24T01:45:00.494Z,6.46
2018-01-24T01:46:01.271Z,6.43
2018-01-24T01:47:01.500Z,6.43
2018-01-24T01:48:03.483Z,6.44
2018-01-24T01:49:00.665Z,6.45
2018-01-24T01:50:01.652Z,6.43
2018-01-24T01:51:01.219Z,6.44
2018-01-24T01:52:01.686Z,6.47
2018-01-24T01:53:00.405Z,6.44
2018-01-24T01:54:00.483Z,6.47
2018-01-24T01:55:00.487Z,6.45
2018-01-24T01:56:00.531Z,6.44
2018-01-24T01:57:00.496Z,6.43
2018-01-24T01:58:00.443Z,6.48
2018-01-24T01:59:00.616Z,6.46
2018-01-24T02:00:00.588Z,6.48
2018-01-24T02:01:00.761Z,6.44
2018-01-24T02:02:00.462Z,6.47
2018-01-24T02:03:00.467Z,6.45
2018-01-24T02:04:00.462Z,6.48
2018-01-24T02:05:00.378Z,6.48
2018-01-24T02:06:00.518Z,6.45
2018-01-24T02:07:00.483Z,6.48
2018-01-24T02:08:00.527Z,6.47
2018-01-24T02:09:00.480Z,6.47
2018-01-24T02:10:00.543Z,6.48
2018-01-24T02:11:00.574Z,6.46
2018-01-24T02:12:00.520Z,6.49
2018-01-24T02:13:00.573Z,6.49
2018-01-24T02:14:00.557Z,6.49
2018-01-24T02:15:01.132Z,6.5
2018-01-24T02:16:00.816Z,6.48
2018-01-24T02:17:00.517Z,6.51
2018-01-24T02:18:00.625Z,6.51
2018-01-24T02:19:00.504Z,6.5
2018-01-24T02:20:00.557Z,6.51
2018-01-24T02:21:00.539Z,6.51
2018-01-24T02:22:00.592Z,6.51
2018-01-24T02:23:00.582Z,6.51
2018-01-24T02:24:00.642Z,6.49
2018-01-24T02:25:00.531Z,6.5
2018-01-24T02:26:00.613Z,6.54
2018-01-24T02:27:00.701Z,6.54
2018-01-24T02:28:00.590Z,6.55
2018-01-24T02:29:00.432Z,6.54
2018-01-24T02:30:00.591Z,6.54
2018-01-24T02:31:00.531Z,6.55
2018-01-24T02:32:00.536Z,6.53
2018-01-24T02:33:01.226Z,6.55
2018-01-24T02:34:00.449Z,6.56
2018-01-24T02:35:00.546Z,6.55
2018-01-24T02:36:00.521Z,6.58
2018-01-24T02:37:00.574Z,6.58
2018-01-24T02:38:00.927Z,6.57
2018-01-24T02:39:00.656Z,6.58
2018-01-24T02:40:00.673Z,6.59
2018-01-24T02:41:00.587Z,6.6
2018-01-24T02:42:00.584Z,6.59
2018-01-24T02:43:00.613Z,6.61
2018-01-24T02:44:00.508Z,6.61
2018-01-24T02:45:00.524Z,6.61
2018-01-24T02:46:00.535Z,6.6
2018-01-24T02:47:00.643Z,6.6
2018-01-24T02:48:00.535Z,6.63
2018-01-24T02:49:00.609Z,6.63
2018-01-24T02:50:00.642Z,6.64
2018-01-24T02:51:00.548Z,6.65
2018-01-24T02:52:00.571Z,6.63
2018-01-24T02:53:00.532Z,6.64
2018-01-24T02:54:00.686Z,6.64
2018-01-24T02:55:00.629Z,6.65
2018-01-24T02:56:00.535Z,6.66
2018-01-24T02:57:00.674Z,6.66
2018-01-24T02:58:00.594Z,6.66
2018-01-24T02:59:00.608Z,6.66
2018-01-24T03:00:00.671Z,6.66
2018-01-24T03:01:00.568Z,6.68
2018-01-24T03:02:00.498Z,6.68
2018-01-24T03:03:00.651Z,6.68
2018-01-24T03:04:00.622Z,6.69
2018-01-24T03:05:00.538Z,6.68
2018-01-24T03:06:00.622Z,6.69
2018-01-24T03:07:00.653Z,6.7
2018-01-24T03:08:00.647Z,6.71
2018-01-24T03:09:00.494Z,6.73
2018-01-24T03:10:00.444Z,6.73
2018-01-24T03:11:00.531Z,6.74
2018-01-24T03:12:00.684Z,6.75
2018-01-24T03:13:00.750Z,6.74
2018-01-24T03:14:00.658Z,6.77
2018-01-24T03:15:00.643Z,6.75
2018-01-24T03:16:00.774Z,6.77
2018-01-24T03:17:00.603Z,6.78
2018-01-24T03:18:00.642Z,6.77
2018-01-24T03:19:00.680Z,6.8
2018-01-24T03:20:00.694Z,6.79
2018-01-24T03:21:00.655Z,6.8
2018-01-24T03:22:00.519Z,6.81
2018-01-24T03:23:00.574Z,6.82
2018-01-24T03:25:01.315Z,6.82
2018-01-24T03:26:00.530Z,6.83
2018-01-24T03:27:00.671Z,6.83
2018-01-24T03:28:00.559Z,6.85
2018-01-24T03:29:00.655Z,6.84
2018-01-24T03:30:00.689Z,6.85
2018-01-24T03:31:00.715Z,6.85
2018-01-24T03:32:00.603Z,6.86
2018-01-24T03:33:00.644Z,6.86
2018-01-24T03:34:00.716Z,6.87
2018-01-24T03:35:00.628Z,6.88
2018-01-24T03:36:00.609Z,6.88
2018-01-24T03:37:00.589Z,6.87
2018-01-24T03:38:00.549Z,6.88
2018-01-24T03:39:00.556Z,6.89
2018-01-24T03:40:00.499Z,6.92
2018-01-24T03:41:00.548Z,6.96
2018-01-24T03:42:00.594Z,6.97
2018-01-24T03:43:00.716Z,7.02
2018-01-24T03:44:00.806Z,7.04
2018-01-24T03:45:00.610Z,7.05
2018-01-24T03:46:00.502Z,7.1
2018-01-24T03:47:00.610Z,7.09
2018-01-24T03:48:00.629Z,7.06
2018-01-24T03:49:00.617Z,7.12
2018-01-24T03:50:00.623Z,7.09
2018-01-24T03:51:00.725Z,7.12
2018-01-24T03:52:00.758Z,7.1
2018-01-24T03:53:00.797Z,7.11
2018-01-24T03:54:00.647Z,7.12
2018-01-24T03:55:00.703Z,7.09
2018-01-24T03:56:00.696Z,7.1
2018-01-24T03:57:00.736Z,7.11
2018-01-24T03:58:00.583Z,7.09
2018-01-24T03:59:00.723Z,7.1
2018-01-24T04:00:00.743Z,7.09
2018-01-24T04:01:00.722Z,7.1
2018-01-24T04:02:00.702Z,7.09
2018-01-24T04:03:00.592Z,7.09
2018-01-24T04:04:00.701Z,7.07
2018-01-24T04:05:00.710Z,7.1
2018-01-24T04:06:00.866Z,7.1
2018-01-24T04:07:00.876Z,7.11
2018-01-24T04:08:00.691Z,7.12
2018-01-24T04:09:00.616Z,7.12
2018-01-24T04:10:00.787Z,7.13
2018-01-24T04:11:00.563Z,7.12
2018-01-24T04:12:00.744Z,7.14
2018-01-24T04:13:00.725Z,7.16
2018-01-24T04:14:00.697Z,7.13
2018-01-24T04:15:00.709Z,7.11
2018-01-24T04:16:00.735Z,7.14
2018-01-24T04:17:00.616Z,7.14
2018-01-24T04:18:00.593Z,7.13
2018-01-24T04:19:00.626Z,7.15
2018-01-24T04:20:00.642Z,7.16
2018-01-24T04:21:00.834Z,7.2
2018-01-24T04:22:00.791Z,7.22
2018-01-24T04:23:00.589Z,7.21
2018-01-24T04:24:00.675Z,7.18
2018-01-24T04:25:00.702Z,7.2
2018-01-24T04:26:00.791Z,7.21
2018-01-24T04:27:00.801Z,7.21
2018-01-24T04:28:00.599Z,7.18
2018-01-24T04:29:00.760Z,7.19
2018-01-24T04:30:00.703Z,7.21
2018-01-24T04:31:00.551Z,7.21
2018-01-24T04:32:00.718Z,7.21
2018-01-24T04:33:00.724Z,7.2
2018-01-24T04:34:00.679Z,7.2
2018-01-24T04:35:00.646Z,7.22
2018-01-24T04:36:00.706Z,7.21
2018-01-24T04:37:00.771Z,7.23
2018-01-24T04:38:00.681Z,7.23
2018-01-24T04:39:00.564Z,7.24
2018-01-24T04:40:00.568Z,7.22
2018-01-24T04:41:00.600Z,7.22
2018-01-24T04:42:00.872Z,7.2
2018-01-24T04:43:00.679Z,7.23
2018-01-24T04:44:00.699Z,7.23
2018-01-24T04:45:00.853Z,7.21
2018-01-24T04:46:00.654Z,7.21
2018-01-24T04:47:00.650Z,7.21
2018-01-24T04:48:00.732Z,7.22
2018-01-24T04:49:00.805Z,7.24
2018-01-24T04:50:00.776Z,7.23
2018-01-24T04:51:00.674Z,7.23
2018-01-24T04:52:00.766Z,7.21
2018-01-24T04:53:00.752Z,7.24
2018-01-24T04:54:00.656Z,7.22
2018-01-24T04:57:00.792Z,7.21
2018-01-24T04:58:00.916Z,7.2
2018-01-24T04:59:00.842Z,7.2
2018-01-24T05:00:00.945Z,7.21
2018-01-24T05:01:00.783Z,7.22
2018-01-24T05:02:00.765Z,7.23
2018-01-24T05:03:00.975Z,7.23
2018-01-24T05:04:00.755Z,7.22
2018-01-24T05:05:00.797Z,7.23
2018-01-24T05:06:00.815Z,7.25
2018-01-24T05:07:00.864Z,7.26
2018-01-24T05:08:00.905Z,7.25
2018-01-24T05:09:00.909Z,7.25
2018-01-24T05:10:00.755Z,7.23
2018-01-24T05:11:00.773Z,7.24
2018-01-24T05:12:00.981Z,7.26
2018-01-24T05:13:00.838Z,7.25
2018-01-24T05:14:00.978Z,7.22
2018-01-24T05:15:00.930Z,7.24
2018-01-24T05:16:00.940Z,7.22
2018-01-24T05:17:00.744Z,7.25
2018-01-24T05:18:00.776Z,7.24
2018-01-24T05:19:00.867Z,7.24
2018-01-24T05:20:00.880Z,7.25
2018-01-24T05:21:00.857Z,7.24
2018-01-24T05:22:00.882Z,7.27
2018-01-24T05:23:00.750Z,7.25
2018-01-24T05:24:00.862Z,7.26
2018-01-24T05:25:00.854Z,7.24
2018-01-24T05:26:00.797Z,7.25
2018-01-24T05:27:00.850Z,7.24
2018-01-24T05:28:00.846Z,7.25
2018-01-24T05:29:00.762Z,7.24
2018-01-24T05:30:00.728Z,7.24
2018-01-24T05:31:00.934Z,7.24
2018-01-24T05:32:00.906Z,7.26
2018-01-24T05:33:00.749Z,7.27
2018-01-24T05:34:00.967Z,7.26
2018-01-24T05:35:00.845Z,7.26
2018-01-24T05:36:01.662Z,7.26
2018-01-24T05:37:00.894Z,7.27
2018-01-24T05:38:00.735Z,7.24
2018-01-24T05:39:00.599Z,7.23
2018-01-24T05:40:00.699Z,7.24
2018-01-24T05:41:00.791Z,7.26
2018-01-24T05:42:00.768Z,7.26
2018-01-24T05:43:00.822Z,7.27
2018-01-24T05:44:00.779Z,7.28
2018-01-24T05:45:00.807Z,7.27
2018-01-24T05:46:00.760Z,7.28
2018-01-24T05:47:00.792Z,7.27
2018-01-24T05:48:00.878Z,7.26
2018-01-24T05:49:00.780Z,7.26
2018-01-24T05:50:00.910Z,7.25
2018-01-24T05:51:00.792Z,7.26
2018-01-24T05:52:00.800Z,7.26
2018-01-24T05:53:00.861Z,7.26
2018-01-24T05:54:00.925Z,7.27
2018-01-24T05:55:00.916Z,7.26
2018-01-24T05:56:00.742Z,7.27
2018-01-24T05:57:00.812Z,7.26
2018-01-24T05:58:00.965Z,7.26
2018-01-24T05:59:00.928Z,7.25
2018-01-24T06:00:01.189Z,7.27
2018-01-24T06:01:00.855Z,7.27
2018-01-24T06:02:00.893Z,7.26
2018-01-24T06:03:00.805Z,7.24
2018-01-24T06:04:00.879Z,7.26
2018-01-24T06:05:00.935Z,7.27
2018-01-24T06:06:00.806Z,7.27
2018-01-24T06:07:00.751Z,7.26
2018-01-24T06:08:00.884Z,7.26
2018-01-24T06:09:00.884Z,7.26
2018-01-24T06:10:00.923Z,7.26
2018-01-24T06:11:00.848Z,7.26
2018-01-24T06:12:01.606Z,7.25
2018-01-24T06:13:01.010Z,7.25
2018-01-24T06:14:01.051Z,7.24
2018-01-24T06:15:00.951Z,7.26
2018-01-24T06:16:01.078Z,7.24
2018-01-24T06:17:00.994Z,7.25
2018-01-24T06:18:00.892Z,7.25
2018-01-24T06:19:01.055Z,7.27
2018-01-24T06:20:00.901Z,7.27
2018-01-24T06:21:00.853Z,7.27
2018-01-24T06:22:01.041Z,7.25
2018-01-24T06:23:01.047Z,7.26
2018-01-24T06:24:00.884Z,7.26
2018-01-24T06:25:01.032Z,7.25
2018-01-24T06:26:00.922Z,7.25
2018-01-24T06:27:01.020Z,7.25
2018-01-24T06:28:00.976Z,7.24
2018-01-24T06:29:00.789Z,7.25
2018-01-24T06:30:01.002Z,7.25
2018-01-24T06:31:01.006Z,7.25
2018-01-24T06:32:00.954Z,7.24
2018-01-24T06:33:01.046Z,7.23
2018-01-24T06:34:00.888Z,7.24
2018-01-24T06:35:00.880Z,7.24
2018-01-24T06:36:01.188Z,7.23
2018-01-24T06:37:00.854Z,7.25
2018-01-24T06:38:00.861Z,7.25
2018-01-24T06:39:00.874Z,7.24
2018-01-24T06:40:01.013Z,7.26
2018-01-24T06:41:00.899Z,7.26
2018-01-24T06:42:01.111Z,7.26
2018-01-24T06:43:00.006Z,7.25
2018-01-24T06:44:00.372Z,7.25
2018-01-24T06:45:00.148Z,7.26
2018-01-24T06:46:00.049Z,7.26
2018-01-24T06:47:00.093Z,7.24
2018-01-24T06:48:00.040Z,7.24
2018-01-24T06:49:00.063Z,7.25
2018-01-24T06:50:00.086Z,7.23
2018-01-24T06:51:00.046Z,7.24
2018-01-24T06:52:00.034Z,7.29
2018-01-24T06:52:59.979Z,7.26
2018-01-24T06:53:59.964Z,7.24
2018-01-24T06:55:00.160Z,7.25
2018-01-24T06:55:59.897Z,7.23
2018-01-24T06:56:59.984Z,7.25
2018-01-24T06:58:00.167Z,7.26
2018-01-24T06:59:00.100Z,7.24
2018-01-24T07:00:01.089Z,7.25
2018-01-24T07:01:00.282Z,7.24
2018-01-24T07:02:00.084Z,7.26
2018-01-24T07:03:00.105Z,7.25
2018-01-24T07:04:00.251Z,7.23
2018-01-24T07:05:00.070Z,7.23
2018-01-24T07:06:00.096Z,7.25
2018-01-24T07:07:00.068Z,7.26
2018-01-24T07:07:59.984Z,7.27
2018-01-24T07:09:00.568Z,7.26
2018-01-24T07:10:00.137Z,7.26
2018-01-24T07:11:00.085Z,7.28
2018-01-24T07:12:00.035Z,7.25
2018-01-24T07:13:00.324Z,7.25
2018-01-24T07:14:00.175Z,7.26
2018-01-24T07:15:00.198Z,7.24
2018-01-24T07:16:00.148Z,7.25
2018-01-24T07:17:00.007Z,7.24
2018-01-24T07:18:00.066Z,7.26
2018-01-24T07:19:00.159Z,7.24
2018-01-24T07:20:00.265Z,7.25
2018-01-24T07:21:00.441Z,7.26
2018-01-24T07:22:00.028Z,7.25
2018-01-24T07:23:00.085Z,7.3
2018-01-24T07:24:00.056Z,7.24
2018-01-24T07:25:00.053Z,7.25
2018-01-24T07:26:00.198Z,7.27
2018-01-24T07:27:00.478Z,7.25
2018-01-24T07:27:59.979Z,7.26
2018-01-24T07:29:00.051Z,7.27
2018-01-24T07:30:00.070Z,7.28
2018-01-24T07:31:00.207Z,7.27
2018-01-24T07:32:00.178Z,7.29
2018-01-24T07:33:00.146Z,7.27
2018-01-24T07:34:00.063Z,7.3
2018-01-24T07:35:00.788Z,7.28
2018-01-24T07:36:00.263Z,7.26
2018-01-24T07:37:00.326Z,7.27
2018-01-24T07:38:00.099Z,7.27
2018-01-24T07:39:01.808Z,7.28
2018-01-24T07:40:00.188Z,7.27
2018-01-24T07:41:01.885Z,7.28
2018-01-24T07:42:00.619Z,7.28
2018-01-24T07:43:00.298Z,7.29
2018-01-24T07:44:01.918Z,7.28
2018-01-24T07:45:00.914Z,7.28
2018-01-24T07:46:01.473Z,7.29
2018-01-24T07:47:06.940Z,7.29
2018-01-24T07:48:00.099Z,7.27
2018-01-24T07:49:00.882Z,7.3
2018-01-24T07:50:02.017Z,7.28
2018-01-24T07:51:01.222Z,7.28
2018-01-24T07:52:03.722Z,7.28
2018-01-24T07:53:02.639Z,7.28
2018-01-24T07:54:00.230Z,7.27
2018-01-24T07:55:03.685Z,7.3
2018-01-24T07:56:00.963Z,7.29
2018-01-24T07:57:00.168Z,7.29
2018-01-24T07:58:02.494Z,7.29
2018-01-24T07:59:02.846Z,7.3
2018-01-24T08:00:01.388Z,7.33
2018-01-24T08:01:00.278Z,7.33
2018-01-24T08:02:01.084Z,7.32
2018-01-24T08:03:01.791Z,7.31
2018-01-24T08:04:00.918Z,7.33
2018-01-24T08:05:01.578Z,7.32
2018-01-24T08:06:02.016Z,7.33
2018-01-24T08:07:00.282Z,7.34
2018-01-24T08:08:00.822Z,7.34
2018-01-24T08:09:00.170Z,7.34
2018-01-24T08:10:00.178Z,7.33
2018-01-24T08:11:00.216Z,7.35
2018-01-24T08:12:00.224Z,7.37
2018-01-24T08:13:00.194Z,7.36
2018-01-24T08:14:00.522Z,7.38
2018-01-24T08:15:00.140Z,7.39
2018-01-24T08:16:00.255Z,7.39
2018-01-24T08:17:00.144Z,7.42
2018-01-24T08:18:00.308Z,7.4
2018-01-24T08:19:00.043Z,7.43
2018-01-24T08:20:00.225Z,7.45
2018-01-24T08:21:00.313Z,7.43
2018-01-24T08:22:00.075Z,7.46
2018-01-24T08:23:00.185Z,7.43
2018-01-24T08:24:00.221Z,7.44
2018-01-24T08:25:00.296Z,7.43
2018-01-24T08:26:00.312Z,7.45
2018-01-24T08:27:00.377Z,7.44
2018-01-24T08:28:00.297Z,7.44
2018-01-24T08:29:00.421Z,7.46
2018-01-24T08:30:00.141Z,7.48
2018-01-24T08:31:00.158Z,7.48
2018-01-24T08:32:00.325Z,7.47
2018-01-24T08:33:00.233Z,7.47
2018-01-24T08:34:00.440Z,7.49
2018-01-24T08:35:00.268Z,7.49
2018-01-24T08:36:00.259Z,7.52
2018-01-24T08:37:00.286Z,7.53
2018-01-24T08:38:00.406Z,7.51
2018-01-24T08:39:00.947Z,7.51
2018-01-24T08:40:00.207Z,7.54
2018-01-24T08:41:00.219Z,7.54
2018-01-24T08:42:00.249Z,7.58
2018-01-24T08:43:00.322Z,7.54
2018-01-24T08:44:00.144Z,7.55
2018-01-24T08:45:00.283Z,7.57
2018-01-24T08:46:00.260Z,7.58
2018-01-24T08:47:00.168Z,7.61
2018-01-24T08:48:00.384Z,7.62
2018-01-24T08:49:00.280Z,7.6
2018-01-24T08:50:00.356Z,7.62
2018-01-24T08:51:00.365Z,7.61
2018-01-24T08:52:00.233Z,7.6
2018-01-24T08:53:00.231Z,7.63
2018-01-24T08:54:00.248Z,7.61
2018-01-24T08:55:00.293Z,7.6
2018-01-24T08:56:00.520Z,7.63
2018-01-24T08:57:00.186Z,7.67
2018-01-24T08:58:00.192Z,7.65
2018-01-24T08:59:00.328Z,7.65
2018-01-24T09:00:00.242Z,7.68
2018-01-24T09:01:00.471Z,7.69
2018-01-24T09:02:00.422Z,7.67
2018-01-24T09:03:00.255Z,7.67
2018-01-24T09:04:00.247Z,7.66
2018-01-24T09:05:00.273Z,7.68
2018-01-24T09:06:00.249Z,7.68
2018-01-24T09:07:00.329Z,7.69
2018-01-24T09:08:00.278Z,7.72
2018-01-24T09:09:00.215Z,7.7
2018-01-24T09:10:00.289Z,7.66
2018-01-24T09:11:00.268Z,7.67
2018-01-24T09:12:00.394Z,7.69
2018-01-24T09:13:01.241Z,7.69
2018-01-24T09:14:00.458Z,7.67
2018-01-24T09:15:00.517Z,7.69
2018-01-24T09:16:00.433Z,7.7
2018-01-24T09:17:00.363Z,7.69
2018-01-24T09:18:00.284Z,7.68
2018-01-24T09:19:00.364Z,7.71
2018-01-24T09:20:00.344Z,7.71
2018-01-24T09:21:00.285Z,7.73
2018-01-24T09:22:00.307Z,7.75
2018-01-24T09:23:00.399Z,7.76
2018-01-24T09:24:00.416Z,7.75
2018-01-24T09:25:00.275Z,7.8
2018-01-24T09:26:00.376Z,7.81
2018-01-24T09:27:00.340Z,7.79
2018-01-24T09:28:00.390Z,7.8
2018-01-24T09:29:00.407Z,7.82
2018-01-24T09:30:00.361Z,7.84
2018-01-24T09:31:00.423Z,7.84
2018-01-24T09:32:01.158Z,7.82
2018-01-24T09:33:01.409Z,7.85
2018-01-24T09:34:01.651Z,7.83
2018-01-24T09:35:00.930Z,7.85
2018-01-24T09:36:01.151Z,7.84
2018-01-24T09:37:01.440Z,7.86
2018-01-24T09:38:01.722Z,7.88
2018-01-24T09:39:00.785Z,7.85
2018-01-24T09:40:02.040Z,7.88
2018-01-24T09:41:01.768Z,7.89
2018-01-24T09:42:00.856Z,7.87
2018-01-24T09:43:01.048Z,7.88
2018-01-24T09:44:00.408Z,7.92
2018-01-24T09:45:01.406Z,7.93
2018-01-24T09:46:01.020Z,7.94
2018-01-24T09:47:01.099Z,7.95
2018-01-24T09:48:01.501Z,7.96
2018-01-24T09:49:00.576Z,7.95
2018-01-24T09:50:01.399Z,7.93
2018-01-24T09:51:01.572Z,7.92
2018-01-24T09:52:01.744Z,7.95
2018-01-24T09:53:00.971Z,7.95
2018-01-24T09:54:01.042Z,7.95
2018-01-24T09:55:01.450Z,7.96
2018-01-24T09:56:01.202Z,7.98
2018-01-24T09:57:01.546Z,8.01
2018-01-24T09:58:01.698Z,8.01
2018-01-24T09:59:00.472Z,7.96
2018-01-24T10:00:01.259Z,7.95
2018-01-24T10:01:01.504Z,7.98
2018-01-24T10:02:01.691Z,7.96
2018-01-24T10:03:01.763Z,7.98
2018-01-24T10:04:01.192Z,7.99
2018-01-24T10:05:00.414Z,7.98
2018-01-24T10:06:01.149Z,7.98
2018-01-24T10:07:01.495Z,7.98
2018-01-24T10:08:01.103Z,7.99
2018-01-24T10:09:01.464Z,7.99
2018-01-24T10:10:00.391Z,7.99
2018-01-24T10:11:01.254Z,8.01
2018-01-24T10:12:01.322Z,7.97
2018-01-24T10:13:01.500Z,7.96
2018-01-24T10:14:01.921Z,7.98
2018-01-24T10:15:01.190Z,7.98
2018-01-24T10:16:01.494Z,7.99
2018-01-24T10:17:00.462Z,7.99
2018-01-24T10:18:02.428Z,7.98
2018-01-24T10:19:01.795Z,7.98
2018-01-24T10:20:01.225Z,8.01
2018-01-24T10:21:01.209Z,7.99
2018-01-24T10:22:01.554Z,7.98
2018-01-24T10:23:01.685Z,7.96
2018-01-24T10:24:01.046Z,7.94
2018-01-24T10:25:01.108Z,7.94
2018-01-24T10:26:00.614Z,7.93
2018-01-24T10:27:01.749Z,7.96
2018-01-24T10:28:00.944Z,7.95
2018-01-24T10:29:01.077Z,7.98
2018-01-24T10:30:00.475Z,7.98
2018-01-24T10:31:00.474Z,7.97
2018-01-24T10:32:01.260Z,7.94
2018-01-24T10:33:01.686Z,7.92
2018-01-24T10:34:01.542Z,7.95
2018-01-24T10:35:01.662Z,7.92
2018-01-24T10:36:02.333Z,7.98
2018-01-24T10:37:01.372Z,7.97
2018-01-24T10:38:01.358Z,7.99
2018-01-24T10:39:01.578Z,7.99
2018-01-24T10:40:01.646Z,8
2018-01-24T10:41:01.500Z,7.98
2018-01-24T10:42:01.364Z,7.99
2018-01-24T10:43:01.471Z,7.98
2018-01-24T10:44:00.352Z,8.05
2018-01-24T10:45:01.554Z,8.01
2018-01-24T10:46:01.234Z,8.06
2018-01-24T10:47:01.030Z,8.07
2018-01-24T10:48:01.531Z,8.03
2018-01-24T10:49:01.350Z,8
2018-01-24T10:50:01.639Z,8
2018-01-24T10:51:01.404Z,7.99
2018-01-24T10:52:00.539Z,8.01
2018-01-24T10:53:01.336Z,8.04
2018-01-24T10:54:01.087Z,8
2018-01-24T10:55:01.234Z,7.99
2018-01-24T10:56:01.333Z,8.03
2018-01-24T10:57:01.502Z,8.04
2018-01-24T10:58:01.202Z,8.06
2018-01-24T10:59:01.238Z,8.01
2018-01-24T11:00:01.268Z,8.05
2018-01-24T11:01:01.609Z,8.08
2018-01-24T11:02:01.512Z,8.08
2018-01-24T11:03:01.553Z,8.06
2018-01-24T11:04:00.515Z,8.09
2018-01-24T11:05:01.262Z,8.08
2018-01-24T11:06:01.196Z,8.13
2018-01-24T11:07:01.574Z,8.08
2018-01-24T11:08:01.588Z,8.1
2018-01-24T11:09:01.294Z,8.02
2018-01-24T11:10:01.643Z,8.1
2018-01-24T11:11:02.003Z,8.1
2018-01-24T11:12:01.399Z,7.97
2018-01-24T11:13:01.202Z,8.03
2018-01-24T11:14:01.165Z,8.03
2018-01-24T11:15:01.352Z,8.07
2018-01-24T11:16:01.587Z,8.1
2018-01-24T11:17:01.433Z,8.06
2018-01-24T11:18:01.536Z,8.17
2018-01-24T11:19:01.696Z,8.12
2018-01-24T11:20:01.588Z,8.12
2018-01-24T11:21:01.407Z,8.08
2018-01-24T11:22:01.475Z,8.14
2018-01-24T11:23:02.178Z,8.16
2018-01-24T11:24:01.468Z,8.07
2018-01-24T11:25:01.384Z,8.1
2018-01-24T11:26:01.280Z,8.08
2018-01-24T11:27:01.483Z,8.1
2018-01-24T11:28:01.591Z,8
2018-01-24T11:29:01.357Z,8.06
2018-01-24T11:30:00.926Z,8.05
2018-01-24T11:31:00.421Z,8.1
2018-01-24T11:32:00.476Z,8.17
2018-01-24T11:33:00.335Z,8.03
2018-01-24T11:34:00.356Z,8.1
2018-01-24T11:35:00.437Z,8.1
2018-01-24T11:36:00.526Z,8.14
2018-01-24T11:37:00.402Z,8.17
2018-01-24T11:38:00.501Z,8.08
2018-01-24T11:39:00.296Z,8.02
2018-01-24T11:40:00.446Z,8.06
2018-01-24T11:41:00.434Z,8.1
2018-01-24T11:42:00.345Z,8.08
2018-01-24T11:43:00.488Z,8.08
2018-01-24T11:44:00.613Z,8.1
2018-01-24T11:45:00.434Z,8.07
2018-01-24T11:46:00.447Z,8.13
2018-01-24T11:47:00.325Z,8.12
2018-01-24T11:48:00.280Z,8.08
2018-01-24T11:49:00.616Z,8.17
2018-01-24T11:50:00.399Z,8.1
2018-01-24T11:51:00.601Z,8.1
2018-01-24T11:52:00.540Z,8.06
2018-01-24T11:53:00.601Z,8.11
2018-01-24T11:54:00.514Z,7.98
2018-01-24T11:55:01.109Z,8.1
2018-01-24T11:56:00.630Z,8.1
2018-01-24T11:57:00.517Z,8.01
2018-01-24T11:58:00.352Z,8.01
2018-01-24T11:59:00.382Z,8.11
2018-01-24T12:00:00.385Z,8.1
2018-01-24T12:01:00.491Z,8.06
2018-01-24T12:02:00.309Z,7.99
2018-01-24T12:03:00.394Z,7.99
2018-01-24T12:04:00.532Z,7.94
2018-01-24T12:05:00.372Z,7.97
2018-01-24T12:06:00.352Z,7.97
2018-01-24T12:07:00.295Z,8
2018-01-24T12:08:00.446Z,8.04
2018-01-24T12:09:00.507Z,8.03
2018-01-24T12:10:00.556Z,8.09
2018-01-24T12:11:00.376Z,8.06
2018-01-24T12:12:00.368Z,8.07
2018-01-24T12:13:00.475Z,8.13
2018-01-24T12:14:00.732Z,8.15
2018-01-24T12:15:00.558Z,8.07
2018-01-24T12:16:00.448Z,8.04
2018-01-24T12:17:00.571Z,7.97
2018-01-24T12:18:00.555Z,8.02
2018-01-24T12:19:00.763Z,8.05
2018-01-24T12:20:00.612Z,7.96
2018-01-24T12:21:00.514Z,7.98
2018-01-24T12:22:00.401Z,7.98
2018-01-24T12:23:00.510Z,8.03
2018-01-24T12:24:00.474Z,8.03
2018-01-24T12:25:00.629Z,7.98
2018-01-24T12:26:00.500Z,7.99
2018-01-24T12:27:00.467Z,8
2018-01-24T12:28:00.574Z,7.97
2018-01-24T12:29:00.618Z,8
2018-01-24T12:30:00.540Z,8
2018-01-24T12:31:00.585Z,8.05
2018-01-24T12:32:00.455Z,8.08
2018-01-24T12:33:00.680Z,8.06
2018-01-24T12:34:00.523Z,8.13
2018-01-24T12:35:00.583Z,8.1
2018-01-24T12:36:00.418Z,8.07
2018-01-24T12:37:00.431Z,8.09
2018-01-24T12:38:00.609Z,8.03
2018-01-24T12:39:00.520Z,8.01
2018-01-24T12:40:00.506Z,8.03
2018-01-24T12:41:00.451Z,8.04
2018-01-24T12:42:00.375Z,8.06
2018-01-24T12:43:00.476Z,8.04
2018-01-24T12:44:00.577Z,8.04
2018-01-24T12:45:00.836Z,8.09
2018-01-24T12:46:00.531Z,8.07
2018-01-24T12:47:00.557Z,8.08
2018-01-24T12:48:00.472Z,8.03
2018-01-24T12:49:00.509Z,8.02
2018-01-24T12:50:00.766Z,8.08
2018-01-24T12:51:00.443Z,8.01
2018-01-24T12:52:00.464Z,7.91
2018-01-24T12:53:00.583Z,7.96
2018-01-24T12:54:00.359Z,8.02
2018-01-24T12:55:00.555Z,7.98
2018-01-24T12:56:00.686Z,8
2018-01-24T12:57:00.503Z,8.01
2018-01-24T12:58:00.543Z,8.09
2018-01-24T12:59:00.619Z,7.97
2018-01-24T13:00:00.487Z,8.03
2018-01-24T13:01:00.543Z,8.04
2018-01-24T13:02:00.641Z,8.03
2018-01-24T13:03:00.611Z,8.04
2018-01-24T13:04:00.362Z,8
2018-01-24T13:05:00.627Z,8.07
2018-01-24T13:06:00.487Z,8.02
2018-01-24T13:07:00.696Z,8.1
2018-01-24T13:08:00.569Z,8.05
2018-01-24T13:09:00.523Z,7.98
2018-01-24T13:10:00.645Z,7.92
2018-01-24T13:11:00.607Z,7.93
2018-01-24T13:12:00.574Z,7.96
2018-01-24T13:13:00.592Z,7.98
2018-01-24T13:14:00.730Z,7.97
2018-01-24T13:15:00.644Z,7.98
2018-01-24T13:16:00.599Z,7.91
2018-01-24T13:17:00.664Z,7.93
2018-01-24T13:18:00.553Z,7.95
2018-01-24T13:19:00.668Z,7.96
2018-01-24T13:20:00.732Z,7.92
2018-01-24T13:21:00.744Z,8
2018-01-24T13:22:00.493Z,7.93
2018-01-24T13:23:00.614Z,7.99
2018-01-24T13:24:00.568Z,7.95